sensor_id;sensor_type;location;lat;lon;timestamp;pressure;altitude;pressure_sealevel;temperature;humidity
10060;BME280;5069;49.306;8.636;2024-03-25T00:00:54;99796.38;;;7.07;100.00
10060;BME280;5069;49.306;8.636;2024-03-25T00:03:54;99803.38;;;7.06;100.00
10060;BME280;5069;49.306;8.636;2024-03-25T00:06:55;99803.09;;;7.17;100.00
10060;BME280;5069;49.306;8.636;2024-03-25T00:09:57;99811.00;;;7.16;100.00
10060;BME280;5069;49.306;8.636;2024-03-25T00:12:59;99817.28;;;7.10;100.00
10060;BME280;5069;49.306;8.636;2024-03-25T00:16:00;99804.06;;;7.13;100.00
10060;BME280;5069;49.306;8.636;2024-03-25T00:19:01;99812.94;;;7.09;100.00
10060;BME280;5069;49.306;8.636;2024-03-25T00:22:02;99813.06;;;7.04;100.00
10060;BME280;5069;49.306;8.636;2024-03-25T00:25:02;99811.53;;;6.96;100.00
10060;BME280;5069;49.306;8.636;2024-03-25T00:28:03;99815.13;;;6.93;100.00
10060;BME280;5069;49.306;8.636;2024-03-25T00:31:04;99817.44;;;7.04;100.00
10060;BME280;5069;49.306;8.636;2024-03-25T00:34:05;99815.41;;;7.14;100.00
10060;BME280;5069;49.306;8.636;2024-03-25T00:37:05;99807.81;;;7.04;100.00
10060;BME280;5069;49.306;8.636;2024-03-25T00:40:07;99808.00;;;6.98;100.00
10060;BME280;5069;49.306;8.636;2024-03-25T00:43:07;99809.53;;;7.05;100.00
10060;BME280;5069;49.306;8.636;2024-03-25T00:46:08;99805.94;;;7.10;100.00
10060;BME280;5069;49.306;8.636;2024-03-25T00:49:09;99802.59;;;7.04;100.00
10060;BME280;5069;49.306;8.636;2024-03-25T00:52:10;99800.97;;;7.00;100.00
10060;BME280;5069;49.306;8.636;2024-03-25T00:55:10;99801.03;;;6.97;100.00
10060;BME280;5069;49.306;8.636;2024-03-25T00:58:11;99807.31;;;6.92;100.00
10060;BME280;5069;49.306;8.636;2024-03-25T01:01:12;99811.63;;;6.94;100.00
10060;BME280;5069;49.306;8.636;2024-03-25T01:04:12;99808.16;;;6.92;100.00
10060;BME280;5069;49.306;8.636;2024-03-25T01:07:13;99808.22;;;6.89;100.00
10060;BME280;5069;49.306;8.636;2024-03-25T01:10:14;99805.53;;;6.92;100.00
10060;BME280;5069;49.306;8.636;2024-03-25T01:13:14;99812.41;;;6.96;100.00
10060;BME280;5069;49.306;8.636;2024-03-25T01:16:15;99816.69;;;7.00;100.00
10060;BME280;5069;49.306;8.636;2024-03-25T01:19:16;99810.84;;;6.89;100.00
10060;BME280;5069;49.306;8.636;2024-03-25T01:22:16;99806.44;;;6.91;100.00
10060;BME280;5069;49.306;8.636;2024-03-25T01:25:17;99811.94;;;6.82;100.00
10060;BME280;5069;49.306;8.636;2024-03-25T01:28:18;99806.53;;;6.88;100.00
10060;BME280;5069;49.306;8.636;2024-03-25T01:31:19;99814.59;;;6.81;100.00
10060;BME280;5069;49.306;8.636;2024-03-25T01:34:20;99812.16;;;6.75;100.00
10060;BME280;5069;49.306;8.636;2024-03-25T01:37:20;99815.69;;;6.72;100.00
10060;BME280;5069;49.306;8.636;2024-03-25T01:40:21;99815.91;;;6.66;100.00
10060;BME280;5069;49.306;8.636;2024-03-25T01:43:21;99805.66;;;6.57;100.00
10060;BME280;5069;49.306;8.636;2024-03-25T01:46:22;99816.22;;;6.54;100.00
10060;BME280;5069;49.306;8.636;2024-03-25T01:49:22;99816.25;;;6.52;100.00
10060;BME280;5069;49.306;8.636;2024-03-25T01:52:24;99816.38;;;6.48;100.00
10060;BME280;5069;49.306;8.636;2024-03-25T01:55:27;99819.00;;;6.48;100.00
10060;BME280;5069;49.306;8.636;2024-03-25T01:58:29;99814.56;;;6.50;100.00
10060;BME280;5069;49.306;8.636;2024-03-25T02:01:31;99821.50;;;6.51;100.00
10060;BME280;5069;49.306;8.636;2024-03-25T02:04:32;99818.91;;;6.51;100.00
10060;BME280;5069;49.306;8.636;2024-03-25T02:07:35;99814.50;;;6.53;100.00
10060;BME280;5069;49.306;8.636;2024-03-25T02:10:37;99815.19;;;6.59;100.00
10060;BME280;5069;49.306;8.636;2024-03-25T02:13:38;99805.59;;;6.60;100.00
10060;BME280;5069;49.306;8.636;2024-03-25T02:16:39;99814.31;;;6.59;100.00
10060;BME280;5069;49.306;8.636;2024-03-25T02:19:40;99810.00;;;6.58;100.00
10060;BME280;5069;49.306;8.636;2024-03-25T02:22:41;99814.22;;;6.62;100.00
10060;BME280;5069;49.306;8.636;2024-03-25T02:25:42;99818.56;;;6.63;100.00
10060;BME280;5069;49.306;8.636;2024-03-25T02:28:43;99812.34;;;6.67;100.00
10060;BME280;5069;49.306;8.636;2024-03-25T02:31:44;99809.78;;;6.66;100.00
10060;BME280;5069;49.306;8.636;2024-03-25T02:34:47;99808.94;;;6.65;100.00
10060;BME280;5069;49.306;8.636;2024-03-25T02:37:50;99815.91;;;6.66;100.00
10060;BME280;5069;49.306;8.636;2024-03-25T02:40:51;99800.97;;;6.68;100.00
10060;BME280;5069;49.306;8.636;2024-03-25T02:43:52;99797.44;;;6.71;100.00
10060;BME280;5069;49.306;8.636;2024-03-25T02:46:53;99799.97;;;6.72;100.00
10060;BME280;5069;49.306;8.636;2024-03-25T02:49:54;99803.44;;;6.74;100.00
10060;BME280;5069;49.306;8.636;2024-03-25T02:52:55;99804.25;;;6.76;100.00
10060;BME280;5069;49.306;8.636;2024-03-25T02:55:55;99810.38;;;6.75;100.00
10060;BME280;5069;49.306;8.636;2024-03-25T02:58:56;99800.84;;;6.73;100.00
10060;BME280;5069;49.306;8.636;2024-03-25T03:01:56;99801.59;;;6.78;100.00
10060;BME280;5069;49.306;8.636;2024-03-25T03:04:57;99802.19;;;6.87;100.00
10060;BME280;5069;49.306;8.636;2024-03-25T03:07:58;99805.00;;;6.81;100.00
10060;BME280;5069;49.306;8.636;2024-03-25T03:10:58;99794.75;;;6.72;100.00
10060;BME280;5069;49.306;8.636;2024-03-25T03:13:59;99790.34;;;6.74;100.00
10060;BME280;5069;49.306;8.636;2024-03-25T03:16:59;99787.75;;;6.73;100.00
10060;BME280;5069;49.306;8.636;2024-03-25T03:20:00;99789.50;;;6.72;100.00
10060;BME280;5069;49.306;8.636;2024-03-25T03:23:00;99785.28;;;6.67;100.00
10060;BME280;5069;49.306;8.636;2024-03-25T03:26:01;99785.19;;;6.71;100.00
10060;BME280;5069;49.306;8.636;2024-03-25T03:29:01;99780.06;;;6.67;100.00
10060;BME280;5069;49.306;8.636;2024-03-25T03:32:03;99784.53;;;6.63;100.00
10060;BME280;5069;49.306;8.636;2024-03-25T03:35:04;99780.25;;;6.60;100.00
10060;BME280;5069;49.306;8.636;2024-03-25T03:38:04;99788.22;;;6.56;100.00
10060;BME280;5069;49.306;8.636;2024-03-25T03:41:05;99786.69;;;6.49;100.00
10060;BME280;5069;49.306;8.636;2024-03-25T03:44:07;99795.47;;;6.46;100.00
10060;BME280;5069;49.306;8.636;2024-03-25T03:47:07;99800.66;;;6.48;100.00
10060;BME280;5069;49.306;8.636;2024-03-25T03:50:09;99798.84;;;6.50;100.00
10060;BME280;5069;49.306;8.636;2024-03-25T03:53:10;99789.31;;;6.47;100.00
10060;BME280;5069;49.306;8.636;2024-03-25T03:56:10;99802.44;;;6.46;100.00
10060;BME280;5069;49.306;8.636;2024-03-25T03:59:11;99803.47;;;6.40;100.00
10060;BME280;5069;49.306;8.636;2024-03-25T04:02:11;99801.00;;;6.34;100.00
10060;BME280;5069;49.306;8.636;2024-03-25T04:05:12;99793.97;;;6.38;100.00
10060;BME280;5069;49.306;8.636;2024-03-25T04:08:12;99802.75;;;6.34;100.00
10060;BME280;5069;49.306;8.636;2024-03-25T04:11:13;99800.81;;;6.42;100.00
10060;BME280;5069;49.306;8.636;2024-03-25T04:14:14;99807.84;;;6.40;100.00
10060;BME280;5069;49.306;8.636;2024-03-25T04:17:14;99799.34;;;6.32;100.00
10060;BME280;5069;49.306;8.636;2024-03-25T04:20:16;99796.06;;;6.23;100.00
10060;BME280;5069;49.306;8.636;2024-03-25T04:23:16;99801.44;;;6.17;100.00
10060;BME280;5069;49.306;8.636;2024-03-25T04:26:17;99804.78;;;6.22;100.00
10060;BME280;5069;49.306;8.636;2024-03-25T04:29:17;99805.69;;;6.21;100.00
10060;BME280;5069;49.306;8.636;2024-03-25T04:32:18;99804.78;;;6.22;100.00
10060;BME280;5069;49.306;8.636;2024-03-25T04:35:19;99796.16;;;6.20;100.00
10060;BME280;5069;49.306;8.636;2024-03-25T04:38:19;99804.00;;;6.20;100.00
10060;BME280;5069;49.306;8.636;2024-03-25T04:41:20;99800.47;;;6.21;100.00
10060;BME280;5069;49.306;8.636;2024-03-25T04:44:21;99810.03;;;6.22;100.00
10060;BME280;5069;49.306;8.636;2024-03-25T04:47:21;99796.88;;;6.26;100.00
10060;BME280;5069;49.306;8.636;2024-03-25T04:50:22;99798.56;;;6.27;100.00
10060;BME280;5069;49.306;8.636;2024-03-25T04:53:22;99801.28;;;6.23;100.00
10060;BME280;5069;49.306;8.636;2024-03-25T04:56:23;99808.41;;;6.18;100.00
10060;BME280;5069;49.306;8.636;2024-03-25T04:59:24;99810.19;;;6.16;100.00
10060;BME280;5069;49.306;8.636;2024-03-25T05:02:24;99801.75;;;6.05;100.00
10060;BME280;5069;49.306;8.636;2024-03-25T05:05:25;99812.22;;;6.05;100.00
10060;BME280;5069;49.306;8.636;2024-03-25T05:08:25;99815.72;;;6.04;100.00
10060;BME280;5069;49.306;8.636;2024-03-25T05:11:26;99815.03;;;5.98;100.00
10060;BME280;5069;49.306;8.636;2024-03-25T05:14:26;99818.59;;;5.94;100.00
10060;BME280;5069;49.306;8.636;2024-03-25T05:17:27;99816.97;;;5.90;100.00
10060;BME280;5069;49.306;8.636;2024-03-25T05:20:27;99821.44;;;5.83;100.00
10060;BME280;5069;49.306;8.636;2024-03-25T05:23:28;99827.78;;;5.73;100.00
10060;BME280;5069;49.306;8.636;2024-03-25T05:26:28;99833.75;;;5.78;100.00
10060;BME280;5069;49.306;8.636;2024-03-25T05:29:29;99836.09;;;5.92;100.00
10060;BME280;5069;49.306;8.636;2024-03-25T05:32:29;99835.16;;;5.94;100.00
10060;BME280;5069;49.306;8.636;2024-03-25T05:35:30;99830.94;;;5.87;100.00
10060;BME280;5069;49.306;8.636;2024-03-25T05:38:34;99834.47;;;5.85;100.00
10060;BME280;5069;49.306;8.636;2024-03-25T05:41:34;99837.13;;;5.83;100.00
10060;BME280;5069;49.306;8.636;2024-03-25T05:44:36;99830.25;;;5.79;100.00
10060;BME280;5069;49.306;8.636;2024-03-25T05:47:36;99830.13;;;5.85;100.00
10060;BME280;5069;49.306;8.636;2024-03-25T05:50:37;99828.44;;;5.81;100.00
10060;BME280;5069;49.306;8.636;2024-03-25T05:53:38;99830.97;;;5.86;100.00
10060;BME280;5069;49.306;8.636;2024-03-25T05:56:38;99840.06;;;5.69;100.00
10060;BME280;5069;49.306;8.636;2024-03-25T05:59:39;99834.78;;;5.71;100.00
10060;BME280;5069;49.306;8.636;2024-03-25T06:02:39;99824.16;;;5.78;100.00
10060;BME280;5069;49.306;8.636;2024-03-25T06:05:40;99837.06;;;5.86;100.00
10060;BME280;5069;49.306;8.636;2024-03-25T06:08:40;99837.84;;;5.91;100.00
10060;BME280;5069;49.306;8.636;2024-03-25T06:11:41;99835.16;;;5.94;100.00
10060;BME280;5069;49.306;8.636;2024-03-25T06:14:42;99832.47;;;5.97;100.00
10060;BME280;5069;49.306;8.636;2024-03-25T06:17:44;99842.97;;;5.96;100.00
10060;BME280;5069;49.306;8.636;2024-03-25T06:20:45;99838.50;;;5.99;100.00
10060;BME280;5069;49.306;8.636;2024-03-25T06:23:45;99834.94;;;6.03;100.00
10060;BME280;5069;49.306;8.636;2024-03-25T06:26:46;99845.28;;;6.09;100.00
10060;BME280;5069;49.306;8.636;2024-03-25T06:29:48;99839.56;;;6.28;100.00
10060;BME280;5069;49.306;8.636;2024-03-25T06:32:48;99840.22;;;6.37;100.00
10060;BME280;5069;49.306;8.636;2024-03-25T06:36:07;99839.03;;;6.49;100.00
10060;BME280;5069;49.306;8.636;2024-03-25T06:39:08;99842.41;;;6.54;100.00
10060;BME280;5069;49.306;8.636;2024-03-25T06:42:08;99838.63;;;6.64;100.00
10060;BME280;5069;49.306;8.636;2024-03-25T06:45:09;99836.66;;;6.72;100.00
10060;BME280;5069;49.306;8.636;2024-03-25T06:48:10;99835.56;;;6.81;100.00
10060;BME280;5069;49.306;8.636;2024-03-25T06:51:10;99839.78;;;6.86;100.00
10060;BME280;5069;49.306;8.636;2024-03-25T06:54:11;99847.53;;;6.89;100.00
10060;BME280;5069;49.306;8.636;2024-03-25T06:57:11;99841.66;;;6.81;100.00
10060;BME280;5069;49.306;8.636;2024-03-25T07:00:12;99844.91;;;6.89;100.00
10060;BME280;5069;49.306;8.636;2024-03-25T07:03:16;99842.63;;;7.10;100.00
10060;BME280;5069;49.306;8.636;2024-03-25T07:06:17;99843.44;;;7.12;100.00
10060;BME280;5069;49.306;8.636;2024-03-25T07:09:18;99844.09;;;7.18;100.00
10060;BME280;5069;49.306;8.636;2024-03-25T07:12:18;99840.09;;;7.36;100.00
10060;BME280;5069;49.306;8.636;2024-03-25T07:15:20;99835.59;;;7.12;100.00
10060;BME280;5069;49.306;8.636;2024-03-25T07:18:21;99842.88;;;7.30;100.00
10060;BME280;5069;49.306;8.636;2024-03-25T07:21:21;99840.28;;;7.59;100.00
10060;BME280;5069;49.306;8.636;2024-03-25T07:24:22;99834.69;;;7.70;100.00
10060;BME280;5069;49.306;8.636;2024-03-25T07:27:22;99833.56;;;7.78;100.00
10060;BME280;5069;49.306;8.636;2024-03-25T07:30:23;99828.47;;;8.02;100.00
10060;BME280;5069;49.306;8.636;2024-03-25T07:33:28;99824.09;;;8.01;100.00
10060;BME280;5069;49.306;8.636;2024-03-25T07:36:29;99824.31;;;8.21;100.00
10060;BME280;5069;49.306;8.636;2024-03-25T07:39:34;99827.53;;;8.29;100.00
10060;BME280;5069;49.306;8.636;2024-03-25T07:42:34;99825.47;;;8.12;100.00
10060;BME280;5069;49.306;8.636;2024-03-25T07:45:35;99829.31;;;8.30;100.00
10060;BME280;5069;49.306;8.636;2024-03-25T07:48:35;99826.56;;;8.59;100.00
10060;BME280;5069;49.306;8.636;2024-03-25T07:51:36;99822.69;;;8.69;100.00
10060;BME280;5069;49.306;8.636;2024-03-25T07:54:39;99814.69;;;8.73;100.00
10060;BME280;5069;49.306;8.636;2024-03-25T07:57:40;99822.31;;;8.80;100.00
10060;BME280;5069;49.306;8.636;2024-03-25T08:00:40;99821.09;;;8.89;100.00
10060;BME280;5069;49.306;8.636;2024-03-25T08:03:41;99820.44;;;9.07;100.00
10060;BME280;5069;49.306;8.636;2024-03-25T08:06:42;99824.44;;;9.17;100.00
10060;BME280;5069;49.306;8.636;2024-03-25T08:09:42;99821.31;;;9.31;100.00
10060;BME280;5069;49.306;8.636;2024-03-25T08:12:43;99815.69;;;9.40;100.00
10060;BME280;5069;49.306;8.636;2024-03-25T08:15:44;99806.56;;;9.50;100.00
10060;BME280;5069;49.306;8.636;2024-03-25T08:18:44;99805.91;;;9.67;100.00
10060;BME280;5069;49.306;8.636;2024-03-25T08:21:45;99811.72;;;9.75;100.00
10060;BME280;5069;49.306;8.636;2024-03-25T08:24:45;99810.69;;;9.79;100.00
10060;BME280;5069;49.306;8.636;2024-03-25T08:27:46;99812.22;;;9.84;100.00
10060;BME280;5069;49.306;8.636;2024-03-25T08:30:47;99806.09;;;9.84;100.00
10060;BME280;5069;49.306;8.636;2024-03-25T08:33:47;99800.88;;;10.04;100.00
10060;BME280;5069;49.306;8.636;2024-03-25T08:36:48;99797.78;;;10.15;100.00
10060;BME280;5069;49.306;8.636;2024-03-25T08:39:48;99797.81;;;9.71;100.00
10060;BME280;5069;49.306;8.636;2024-03-25T08:42:49;99791.84;;;9.68;100.00
10060;BME280;5069;49.306;8.636;2024-03-25T08:45:49;99791.66;;;10.14;100.00
10060;BME280;5069;49.306;8.636;2024-03-25T08:48:50;99795.34;;;10.32;99.85
10060;BME280;5069;49.306;8.636;2024-03-25T08:51:51;99793.50;;;10.54;93.08
10060;BME280;5069;49.306;8.636;2024-03-25T08:54:51;99804.84;;;10.76;90.12
10060;BME280;5069;49.306;8.636;2024-03-25T08:57:52;99797.13;;;10.92;78.44
10060;BME280;5069;49.306;8.636;2024-03-25T09:00:52;99799.00;;;10.50;65.88
10060;BME280;5069;49.306;8.636;2024-03-25T09:03:53;99798.91;;;10.09;72.05
10060;BME280;5069;49.306;8.636;2024-03-25T09:06:53;99792.97;;;10.26;72.12
10060;BME280;5069;49.306;8.636;2024-03-25T09:09:54;99794.44;;;10.73;74.35
10060;BME280;5069;49.306;8.636;2024-03-25T09:13:13;99785.66;;;10.93;72.22
10060;BME280;5069;49.306;8.636;2024-03-25T09:16:14;99781.91;;;10.99;63.99
10060;BME280;5069;49.306;8.636;2024-03-25T09:19:15;99762.16;;;11.07;64.47
10060;BME280;5069;49.306;8.636;2024-03-25T09:22:16;99750.41;;;11.14;62.18
10060;BME280;5069;49.306;8.636;2024-03-25T09:25:16;99756.69;;;11.31;61.04
10060;BME280;5069;49.306;8.636;2024-03-25T09:28:17;99749.91;;;11.44;61.42
10060;BME280;5069;49.306;8.636;2024-03-25T09:31:18;99747.63;;;11.55;62.81
10060;BME280;5069;49.306;8.636;2024-03-25T09:34:18;99742.44;;;11.71;62.41
10060;BME280;5069;49.306;8.636;2024-03-25T09:37:19;99736.25;;;11.53;60.86
10060;BME280;5069;49.306;8.636;2024-03-25T09:40:20;99729.13;;;11.74;62.30
10060;BME280;5069;49.306;8.636;2024-03-25T09:43:32;99721.63;;;11.46;59.43
10060;BME280;5069;49.306;8.636;2024-03-25T09:46:33;99720.25;;;11.75;63.71
10060;BME280;5069;49.306;8.636;2024-03-25T09:49:35;99711.03;;;11.47;63.24
10060;BME280;5069;49.306;8.636;2024-03-25T09:52:36;99704.94;;;11.09;64.82
10060;BME280;5069;49.306;8.636;2024-03-25T09:55:36;99711.22;;;10.68;66.66
10060;BME280;5069;49.306;8.636;2024-03-25T09:58:38;99709.16;;;10.35;69.05
10060;BME280;5069;49.306;8.636;2024-03-25T10:01:39;99707.66;;;10.30;71.95
10060;BME280;5069;49.306;8.636;2024-03-25T10:04:45;99710.97;;;10.54;73.07
10060;BME280;5069;49.306;8.636;2024-03-25T10:07:47;99704.41;;;10.44;69.98
10060;BME280;5069;49.306;8.636;2024-03-25T10:10:48;99703.53;;;10.63;71.52
10060;BME280;5069;49.306;8.636;2024-03-25T10:13:49;99694.78;;;10.43;69.95
10060;BME280;5069;49.306;8.636;2024-03-25T10:16:49;99686.75;;;10.25;69.98
10060;BME280;5069;49.306;8.636;2024-03-25T10:19:50;99686.88;;;10.43;68.80
10060;BME280;5069;49.306;8.636;2024-03-25T10:22:51;99689.34;;;10.66;66.76
10060;BME280;5069;49.306;8.636;2024-03-25T10:25:52;99684.53;;;10.75;66.17
10060;BME280;5069;49.306;8.636;2024-03-25T10:29:02;99678.31;;;11.33;71.75
10060;BME280;5069;49.306;8.636;2024-03-25T10:32:04;99675.81;;;11.30;68.03
10060;BME280;5069;49.306;8.636;2024-03-25T10:35:05;99674.31;;;11.05;64.91
10060;BME280;5069;49.306;8.636;2024-03-25T10:38:10;99668.72;;;11.49;60.85
10060;BME280;5069;49.306;8.636;2024-03-25T10:41:17;99665.63;;;11.94;52.65
10060;BME280;5069;49.306;8.636;2024-03-25T10:44:18;99664.50;;;11.28;51.45
10060;BME280;5069;49.306;8.636;2024-03-25T10:47:25;99654.09;;;11.06;52.21
10060;BME280;5069;49.306;8.636;2024-03-25T10:50:29;99641.16;;;11.18;53.66
10060;BME280;5069;49.306;8.636;2024-03-25T10:53:30;99642.78;;;11.57;54.29
10060;BME280;5069;49.306;8.636;2024-03-25T10:56:31;99643.47;;;11.79;52.05
10060;BME280;5069;49.306;8.636;2024-03-25T10:59:33;99635.56;;;11.43;52.92
10060;BME280;5069;49.306;8.636;2024-03-25T11:02:38;99631.94;;;11.63;53.94
10060;BME280;5069;49.306;8.636;2024-03-25T11:05:39;99631.91;;;11.99;52.40
10060;BME280;5069;49.306;8.636;2024-03-25T11:08:39;99619.22;;;12.23;50.04
10060;BME280;5069;49.306;8.636;2024-03-25T11:11:41;99612.59;;;12.14;51.73
10060;BME280;5069;49.306;8.636;2024-03-25T11:14:42;99615.25;;;12.14;52.38
10060;BME280;5069;49.306;8.636;2024-03-25T11:17:48;99599.00;;;12.22;51.22
10060;BME280;5069;49.306;8.636;2024-03-25T11:21:00;99595.75;;;12.17;50.92
10060;BME280;5069;49.306;8.636;2024-03-25T11:24:07;99590.94;;;12.08;51.62
10060;BME280;5069;49.306;8.636;2024-03-25T11:27:08;99585.06;;;11.85;51.13
10060;BME280;5069;49.306;8.636;2024-03-25T11:30:09;99569.06;;;11.88;54.26
10060;BME280;5069;49.306;8.636;2024-03-25T11:33:10;99559.81;;;12.30;52.98
10060;BME280;5069;49.306;8.636;2024-03-25T11:36:10;99560.09;;;12.57;52.29
10060;BME280;5069;49.306;8.636;2024-03-25T11:39:11;99563.75;;;12.54;49.84
10060;BME280;5069;49.306;8.636;2024-03-25T11:42:13;99556.75;;;12.37;48.65
10060;BME280;5069;49.306;8.636;2024-03-25T11:45:19;99553.22;;;12.21;50.89
10060;BME280;5069;49.306;8.636;2024-03-25T11:48:19;99556.72;;;12.22;49.38
10060;BME280;5069;49.306;8.636;2024-03-25T11:51:20;99532.88;;;12.23;50.76
10060;BME280;5069;49.306;8.636;2024-03-25T11:54:21;99527.19;;;12.62;51.44
10060;BME280;5069;49.306;8.636;2024-03-25T11:57:22;99528.94;;;12.93;49.53
10060;BME280;5069;49.306;8.636;2024-03-25T12:00:24;99528.78;;;13.12;48.49
10060;BME280;5069;49.306;8.636;2024-03-25T12:03:24;99523.22;;;13.01;48.95
10060;BME280;5069;49.306;8.636;2024-03-25T12:06:26;99525.47;;;12.77;49.68
10060;BME280;5069;49.306;8.636;2024-03-25T12:09:27;99515.16;;;12.72;49.68
10060;BME280;5069;49.306;8.636;2024-03-25T12:12:57;99514.22;;;12.58;50.11
10060;BME280;5069;49.306;8.636;2024-03-25T12:15:57;99501.69;;;12.46;49.17
10060;BME280;5069;49.306;8.636;2024-03-25T12:18:58;99504.75;;;12.69;51.47
10060;BME280;5069;49.306;8.636;2024-03-25T12:22:00;99496.91;;;12.68;48.31
10060;BME280;5069;49.306;8.636;2024-03-25T12:25:04;99496.47;;;12.75;50.16
10060;BME280;5069;49.306;8.636;2024-03-25T12:28:09;99482.56;;;12.72;49.40
10060;BME280;5069;49.306;8.636;2024-03-25T12:31:14;99478.97;;;12.89;49.55
10060;BME280;5069;49.306;8.636;2024-03-25T12:34:16;99472.81;;;13.04;45.09
10060;BME280;5069;49.306;8.636;2024-03-25T12:37:17;99471.00;;;13.20;46.36
10060;BME280;5069;49.306;8.636;2024-03-25T12:40:28;99459.81;;;12.99;46.44
10060;BME280;5069;49.306;8.636;2024-03-25T12:43:30;99457.63;;;12.76;47.04
10060;BME280;5069;49.306;8.636;2024-03-25T12:46:32;99448.47;;;12.52;47.76
10060;BME280;5069;49.306;8.636;2024-03-25T12:49:33;99445.63;;;12.70;46.97
10060;BME280;5069;49.306;8.636;2024-03-25T12:52:34;99441.31;;;12.69;45.10
10060;BME280;5069;49.306;8.636;2024-03-25T12:55:34;99434.66;;;12.62;47.58
10060;BME280;5069;49.306;8.636;2024-03-25T12:58:35;99419.50;;;12.50;44.98
10060;BME280;5069;49.306;8.636;2024-03-25T13:01:35;99413.63;;;12.45;44.64
10060;BME280;5069;49.306;8.636;2024-03-25T13:04:36;99404.91;;;12.89;45.43
10060;BME280;5069;49.306;8.636;2024-03-25T13:07:37;99395.34;;;13.16;44.39
10060;BME280;5069;49.306;8.636;2024-03-25T13:10:38;99380.75;;;13.53;42.90
10060;BME280;5069;49.306;8.636;2024-03-25T13:13:39;99377.81;;;13.57;41.03
10060;BME280;5069;49.306;8.636;2024-03-25T13:16:39;99371.16;;;13.79;42.37
10060;BME280;5069;49.306;8.636;2024-03-25T13:19:40;99371.25;;;14.05;41.11
10060;BME280;5069;49.306;8.636;2024-03-25T13:22:41;99370.94;;;14.51;42.16
10060;BME280;5069;49.306;8.636;2024-03-25T13:25:43;99354.03;;;14.79;40.90
10060;BME280;5069;49.306;8.636;2024-03-25T13:28:44;99344.94;;;14.96;42.04
10060;BME280;5069;49.306;8.636;2024-03-25T13:31:45;99352.16;;;15.06;42.55
10060;BME280;5069;49.306;8.636;2024-03-25T13:34:46;99339.00;;;15.05;41.01
10060;BME280;5069;49.306;8.636;2024-03-25T13:37:47;99333.69;;;15.17;41.07
10060;BME280;5069;49.306;8.636;2024-03-25T13:40:48;99334.13;;;15.37;39.82
10060;BME280;5069;49.306;8.636;2024-03-25T13:43:48;99322.66;;;15.36;39.14
10060;BME280;5069;49.306;8.636;2024-03-25T13:46:49;99331.00;;;14.79;40.59
10060;BME280;5069;49.306;8.636;2024-03-25T13:50:03;99333.16;;;14.47;42.04
10060;BME280;5069;49.306;8.636;2024-03-25T13:53:04;99327.13;;;14.45;42.74
10060;BME280;5069;49.306;8.636;2024-03-25T13:56:05;99312.06;;;14.46;42.81
10060;BME280;5069;49.306;8.636;2024-03-25T13:59:06;99312.41;;;14.67;42.78
10060;BME280;5069;49.306;8.636;2024-03-25T14:02:07;99309.34;;;14.73;42.26
10060;BME280;5069;49.306;8.636;2024-03-25T14:05:08;99309.06;;;14.90;40.42
10060;BME280;5069;49.306;8.636;2024-03-25T14:08:09;99300.50;;;14.60;41.49
10060;BME280;5069;49.306;8.636;2024-03-25T14:11:09;99283.38;;;14.91;41.15
10060;BME280;5069;49.306;8.636;2024-03-25T14:14:10;99282.84;;;15.23;41.18
10060;BME280;5069;49.306;8.636;2024-03-25T14:17:11;99272.06;;;15.50;39.97
10060;BME280;5069;49.306;8.636;2024-03-25T14:20:11;99260.28;;;15.91;38.26
10060;BME280;5069;49.306;8.636;2024-03-25T14:23:12;99262.41;;;15.86;37.08
10060;BME280;5069;49.306;8.636;2024-03-25T14:26:13;99239.91;;;15.42;36.42
10060;BME280;5069;49.306;8.636;2024-03-25T14:29:14;99231.47;;;15.61;38.06
10060;BME280;5069;49.306;8.636;2024-03-25T14:32:14;99238.06;;;15.92;38.23
10060;BME280;5069;49.306;8.636;2024-03-25T14:35:15;99224.66;;;16.17;37.83
10060;BME280;5069;49.306;8.636;2024-03-25T14:38:15;99226.72;;;16.25;37.24
10060;BME280;5069;49.306;8.636;2024-03-25T14:41:19;99226.38;;;16.29;37.37
10060;BME280;5069;49.306;8.636;2024-03-25T14:44:20;99215.13;;;16.61;36.67
10060;BME280;5069;49.306;8.636;2024-03-25T14:47:21;99216.97;;;16.71;36.61
10060;BME280;5069;49.306;8.636;2024-03-25T14:50:22;99206.44;;;16.70;36.63
10060;BME280;5069;49.306;8.636;2024-03-25T14:53:23;99198.81;;;16.87;37.19
10060;BME280;5069;49.306;8.636;2024-03-25T14:56:23;99196.16;;;16.76;36.60
10060;BME280;5069;49.306;8.636;2024-03-25T14:59:24;99188.66;;;16.70;36.62
10060;BME280;5069;49.306;8.636;2024-03-25T15:02:25;99181.78;;;16.90;37.09
10060;BME280;5069;49.306;8.636;2024-03-25T15:05:27;99175.63;;;16.89;38.05
10060;BME280;5069;49.306;8.636;2024-03-25T15:08:27;99170.28;;;16.78;37.24
10060;BME280;5069;49.306;8.636;2024-03-25T15:11:28;99174.56;;;16.46;37.85
10060;BME280;5069;49.306;8.636;2024-03-25T15:14:28;99170.94;;;16.12;37.73
10060;BME280;5069;49.306;8.636;2024-03-25T15:17:31;99159.31;;;16.48;37.02
10060;BME280;5069;49.306;8.636;2024-03-25T15:20:31;99155.75;;;16.71;35.66
10060;BME280;5069;49.306;8.636;2024-03-25T15:23:32;99157.22;;;16.86;36.05
10060;BME280;5069;49.306;8.636;2024-03-25T15:26:32;99150.22;;;16.74;35.34
10060;BME280;5069;49.306;8.636;2024-03-25T15:29:33;99151.03;;;16.64;34.69
10060;BME280;5069;49.306;8.636;2024-03-25T15:32:34;99150.22;;;16.97;36.36
10060;BME280;5069;49.306;8.636;2024-03-25T15:35:34;99147.47;;;16.52;35.33
10060;BME280;5069;49.306;8.636;2024-03-25T15:38:35;99151.84;;;16.53;35.72
10060;BME280;5069;49.306;8.636;2024-03-25T15:41:35;99141.03;;;16.21;36.01
10060;BME280;5069;49.306;8.636;2024-03-25T15:44:36;99136.13;;;16.39;35.41
10060;BME280;5069;49.306;8.636;2024-03-25T15:47:36;99130.13;;;16.59;36.06
10060;BME280;5069;49.306;8.636;2024-03-25T15:50:37;99127.94;;;16.64;35.67
10060;BME280;5069;49.306;8.636;2024-03-25T15:53:38;99131.69;;;16.62;36.50
10060;BME280;5069;49.306;8.636;2024-03-25T15:56:38;99121.38;;;16.57;35.90
10060;BME280;5069;49.306;8.636;2024-03-25T15:59:39;99116.53;;;16.40;35.91
10060;BME280;5069;49.306;8.636;2024-03-25T16:02:39;99109.38;;;16.40;35.93
10060;BME280;5069;49.306;8.636;2024-03-25T16:05:40;99093.94;;;16.34;36.22
10060;BME280;5069;49.306;8.636;2024-03-25T16:08:41;99093.53;;;16.17;36.65
10060;BME280;5069;49.306;8.636;2024-03-25T16:11:42;99091.81;;;16.04;36.85